Accueil
METAR-TAF:

METAR-TAF

Aéroports :

Quimper, France

Aéroport de Quimper Cornouaille

latitude: 47-58N, longitude: 004-10W, altitude: 92 m

Observation

Le bulletin a été fait il y a 24 minutes, à 08:30 UTC
Vent 6 kt de ouest/nord-ouest, variant entre ouest et nord-ouest
Température 17°C
Humidité 68%
Pression 1024 hPa
Visibilité 10 km ou plus
Ciel couvert à une hauteur de 1900 ft

METAR: LFRQ 230830Z AUTO 29006KT 260V320 9999 OVC019 17/11 Q1024 NOSIG

Heure: 10:54 (08:54 UTC)

Prévision

Le bulletin a été fait il y a 54 minutes, à 08:00 UTC
Prévision valable du 23 à 09 UTC au 23 à 18 UTC
Vent 11 kt de nord/nord-ouest
Visibilité 10 km ou plus
Nuages épars à une hauteur de 1100 ft
Nuages fragmentés à une hauteur de 1700 ft

TAF: LFRQ 230800Z 2309/2318 33011KT 9999 SCT011 BKN017

Observations et prévisions météorologiques de plus de 4000 aéroports (messages METAR et TAF).

Les stations disponibles sont représentées par des disques jaunes et rouges sur la carte.

Passer la souris dessus pour voir le nom de la station.

Cliquer dessus pour voir les observations et prévisions météorologiques.

Pour changer de carte: cliquez sur les boutons verts avec une croix noire pour zoomer, sur le bouton vert avec un tiret pour effectuer un zoom arrière, ou sur les flèches vertes pour les cartes adjacentes.


METAR-TAF: